Time;durP1;ratioP1;P1;durP2;ratioP2;P2;SDS_P1;SDS_P2;PMS_P1;PMS_P2;Temp;Humidity;BMP_temperature;BMP_pressure;BME280_temperature;BME280_humidity;BME280_pressure;Samples;Min_cycle;Max_cycle;Signal;HPM_P1;HPM_P2
2020/12/23 00:01:45;;;;;;;56.23;31.63;;;10.00;93.10;;;;;;4426146;32;20159;-69
2020/12/23 00:04:18;;;;;;;64.30;32.97;;;10.00;93.10;;;;;;4426195;32;20163;-69
2020/12/23 00:06:47;;;;;;;84.60;36.60;;;10.00;93.10;;;;;;4426289;32;20252;-69
2020/12/23 00:09:13;;;;;;;58.37;30.30;;;10.00;93.10;;;;;;4425018;32;20173;-71
2020/12/23 00:11:41;;;;;;;60.37;29.93;;;10.00;93.10;;;;;;4425467;32;20227;-71
2020/12/23 00:14:09;;;;;;;55.83;31.13;;;10.00;93.10;;;;;;4425591;32;20354;-70
2020/12/23 00:16:37;;;;;;;66.13;31.77;;;10.00;93.10;;;;;;4430405;32;20226;-69
2020/12/23 00:19:03;;;;;;;65.53;31.67;;;10.10;93.10;;;;;;4426963;32;20288;-70
2020/12/23 00:21:38;;;;;;;54.70;29.27;;;10.10;93.00;;;;;;4425535;32;20618;-70
2020/12/23 00:24:11;;;;;;;65.73;32.50;;;10.10;92.90;;;;;;4429962;32;20182;-69
2020/12/23 00:26:37;;;;;;;61.73;32.23;;;10.10;92.90;;;;;;4428936;32;20163;-70
2020/12/23 00:29:05;;;;;;;75.13;36.77;;;10.10;92.90;;;;;;4426146;32;20205;-70
2020/12/23 00:31:34;;;;;;;56.17;28.17;;;10.10;93.00;;;;;;4424615;32;20195;-70
2020/12/23 00:34:02;;;;;;;83.63;35.70;;;10.10;93.00;;;;;;4426809;32;20199;-71
2020/12/23 00:36:31;;;;;;;61.97;31.40;;;10.00;93.10;;;;;;4425704;32;20258;-70
2020/12/23 00:39:03;;;;;;;72.50;33.57;;;10.00;93.10;;;;;;4424919;32;20240;-70
2020/12/23 00:41:29;;;;;;;74.50;33.60;;;10.00;93.10;;;;;;4429399;32;20234;-68
2020/12/23 00:43:55;;;;;;;66.63;31.07;;;10.10;93.20;;;;;;4430892;32;20226;-70
2020/12/23 00:46:22;;;;;;;65.97;33.57;;;10.10;93.20;;;;;;4429356;32;20562;-71
2020/12/23 00:48:51;;;;;;;63.10;32.63;;;10.10;93.20;;;;;;4430338;32;20174;-70
2020/12/23 00:51:17;;;;;;;64.63;33.70;;;10.10;93.20;;;;;;4430790;32;20198;-69
2020/12/23 00:53:44;;;;;;;67.17;32.30;;;10.10;93.20;;;;;;4428998;32;20173;-70
2020/12/23 00:56:11;;;;;;;69.07;33.93;;;10.10;93.20;;;;;;4430299;32;20214;-70
2020/12/23 00:58:37;;;;;;;68.93;34.27;;;10.10;93.20;;;;;;4429383;32;20161;-69
2020/12/23 01:01:11;;;;;;;65.53;32.13;;;10.10;93.20;;;;;;4428528;32;20161;-69
2020/12/23 01:03:41;;;;;;;70.67;35.73;;;10.10;93.20;;;;;;4428007;32;20249;-69
2020/12/23 01:06:11;;;;;;;50.73;28.80;;;10.20;93.30;;;;;;4429632;32;20226;-69
2020/12/23 01:08:41;;;;;;;71.43;34.70;;;10.10;93.20;;;;;;4429550;32;20251;-68
2020/12/23 01:11:09;;;;;;;69.40;32.23;;;10.20;93.20;;;;;;4425752;32;20631;-69
2020/12/23 01:13:36;;;;;;;76.03;36.07;;;10.20;93.30;;;;;;4427932;32;20258;-68
2020/12/23 01:16:03;;;;;;;82.33;38.00;;;10.20;93.30;;;;;;4429158;32;20267;-68
2020/12/23 01:18:30;;;;;;;70.13;35.27;;;10.20;93.20;;;;;;4429012;32;20182;-69
2020/12/23 01:21:02;;;;;;;75.77;36.33;;;10.20;93.20;;;;;;4426789;32;20239;-68
2020/12/23 01:23:28;;;;;;;79.50;37.17;;;10.30;93.10;;;;;;4426024;32;20186;-69
2020/12/23 01:25:57;;;;;;;64.13;33.53;;;10.20;93.20;;;;;;4425984;32;20242;-70
2020/12/23 01:28:26;;;;;;;61.40;31.60;;;10.20;93.20;;;;;;4428744;32;20339;-71
2020/12/23 01:30:55;;;;;;;70.47;35.07;;;10.20;93.30;;;;;;4426676;32;20203;-70
2020/12/23 01:33:21;;;;;;;93.60;41.57;;;10.20;93.30;;;;;;4429345;32;20193;-69
2020/12/23 01:35:48;;;;;;;60.20;32.23;;;10.20;93.30;;;;;;4426330;32;20194;-70
2020/12/23 01:38:14;;;;;;;59.27;30.20;;;10.20;93.50;;;;;;4429364;32;20214;-70
2020/12/23 01:40:48;;;;;;;64.43;32.70;;;10.20;93.20;;;;;;4426891;32;20221;-70
2020/12/23 01:43:17;;;;;;;62.10;33.10;;;10.20;93.30;;;;;;4427243;32;20156;-69
2020/12/23 01:45:44;;;;;;;62.17;32.63;;;10.20;93.30;;;;;;4427055;32;20159;-70
2020/12/23 01:48:20;;;;;;;57.00;31.50;;;10.20;93.30;;;;;;4427029;32;20500;-69
2020/12/23 01:50:49;;;;;;;69.93;33.83;;;10.20;93.30;;;;;;4427719;32;20235;-69
2020/12/23 01:53:16;;;;;;;78.67;34.10;;;10.20;93.40;;;;;;4428470;32;20442;-70
2020/12/23 01:55:46;;;;;;;60.90;32.23;;;10.20;93.30;;;;;;4429036;32;20643;-69
2020/12/23 01:58:15;;;;;;;66.47;29.77;;;10.30;93.30;;;;;;4430626;32;20227;-70
2020/12/23 02:00:49;;;;;;;71.70;34.47;;;10.30;93.40;;;;;;4428182;32;20168;-71
2020/12/23 02:03:25;;;;;;;75.07;34.60;;;10.30;93.40;;;;;;4424195;32;20158;-70
2020/12/23 02:05:53;;;;;;;69.33;33.83;;;10.30;93.40;;;;;;4424671;32;20189;-70
2020/12/23 02:08:19;;;;;;;59.37;31.93;;;10.30;93.30;;;;;;4427966;32;20202;-70
2020/12/23 02:10:51;;;;;;;57.53;32.00;;;10.30;93.40;;;;;;4424883;32;20542;-70
2020/12/23 02:13:36;;;;;;;67.57;33.97;;;10.30;93.40;;;;;;4426536;32;20193;-69
2020/12/23 02:16:02;;;;;;;55.43;30.97;;;10.30;93.30;;;;;;4428176;32;20224;-70
2020/12/23 02:18:29;;;;;;;65.03;32.13;;;10.40;93.40;;;;;;4428335;32;20206;-70
2020/12/23 02:20:59;;;;;;;78.33;35.63;;;10.30;93.30;;;;;;4426941;32;20217;-68
2020/12/23 02:23:28;;;;;;;57.40;31.57;;;10.40;93.30;;;;;;4428494;32;20163;-68
2020/12/23 02:25:55;;;;;;;62.33;32.03;;;10.40;93.40;;;;;;4428304;32;20186;-68
2020/12/23 02:28:23;;;;;;;71.57;34.30;;;10.40;93.40;;;;;;4427223;32;20188;-69
2020/12/23 02:30:51;;;;;;;69.67;35.27;;;10.40;93.40;;;;;;4428119;32;20778;-69
2020/12/23 02:33:17;;;;;;;78.50;35.47;;;10.40;93.40;;;;;;4428040;32;20705;-69
2020/12/23 02:35:50;;;;;;;95.97;37.83;;;10.40;93.40;;;;;;4426309;32;20183;-68
2020/12/23 02:38:20;;;;;;;72.87;36.50;;;10.40;93.40;;;;;;4425136;32;20269;-69
2020/12/23 02:40:48;;;;;;;80.90;36.23;;;10.40;93.40;;;;;;4429824;32;20250;-69
2020/12/23 02:43:16;;;;;;;93.87;39.87;;;10.50;93.40;;;;;;4430684;32;20193;-69
2020/12/23 02:45:42;;;;;;;105.67;41.40;;;10.40;93.40;;;;;;4426310;32;20174;-68
2020/12/23 02:48:11;;;;;;;87.87;41.37;;;10.40;93.40;;;;;;4427023;32;20603;-70
2020/12/23 02:50:37;;;;;;;89.47;37.70;;;10.50;93.40;;;;;;4426962;32;20693;-69
2020/12/23 02:53:09;;;;;;;91.10;37.43;;;10.50;93.40;;;;;;4426212;32;20215;-68
2020/12/23 02:55:36;;;;;;;104.27;42.00;;;10.50;93.40;;;;;;4425875;32;20222;-68
2020/12/23 02:58:03;;;;;;;93.60;40.47;;;10.40;93.40;;;;;;4426318;32;20204;-69
2020/12/23 03:00:31;;;;;;;90.87;42.43;;;10.50;93.40;;;;;;4425406;32;20229;-69
2020/12/23 03:03:00;;;;;;;90.50;42.47;;;10.50;93.40;;;;;;4427685;32;20171;-69
2020/12/23 03:05:28;;;;;;;91.30;39.07;;;10.50;93.40;;;;;;4427243;32;20527;-68
2020/12/23 03:07:54;;;;;;;175.80;53.63;;;10.50;93.40;;;;;;4428692;32;20506;-69
2020/12/23 03:10:25;;;;;;;139.03;47.70;;;10.50;93.40;;;;;;4424835;32;20197;-69
2020/12/23 03:12:55;;;;;;;168.93;51.30;;;10.60;93.40;;;;;;4428816;32;20502;-69
2020/12/23 03:15:22;;;;;;;103.03;44.60;;;10.60;93.40;;;;;;4426395;32;20237;-69
2020/12/23 03:17:48;;;;;;;87.27;40.30;;;10.60;93.40;;;;;;4426891;32;20246;-70
2020/12/23 03:20:14;;;;;;;102.60;41.50;;;10.60;93.40;;;;;;4427974;32;20219;-69
2020/12/23 03:22:40;;;;;;;94.83;40.50;;;10.60;93.50;;;;;;4425296;32;20186;-69
2020/12/23 03:25:08;;;;;;;99.93;43.00;;;10.60;93.50;;;;;;4427306;32;20206;-70
2020/12/23 03:27:34;;;;;;;95.10;40.50;;;10.60;93.80;;;;;;4426601;32;20216;-69
2020/12/23 03:30:02;;;;;;;100.33;42.57;;;10.60;93.50;;;;;;4428118;32;20311;-69
2020/12/23 03:32:30;;;;;;;115.20;43.33;;;10.60;93.50;;;;;;4426299;32;20155;-69
2020/12/23 03:34:56;;;;;;;163.33;51.77;;;10.60;93.50;;;;;;4427157;32;20168;-69
2020/12/23 03:37:26;;;;;;;175.90;53.10;;;10.70;93.60;;;;;;4427524;32;20189;-69
2020/12/23 03:39:52;;;;;;;118.77;45.87;;;10.70;93.60;;;;;;4427975;32;20195;-69
2020/12/23 03:42:18;;;;;;;123.77;52.70;;;10.70;93.60;;;;;;4427074;32;20613;-70
2020/12/23 03:44:46;;;;;;;222.43;63.23;;;10.70;93.60;;;;;;4427472;32;20175;-69
2020/12/23 03:47:22;;;;;;;172.43;53.40;;;10.70;93.60;;;;;;4426439;32;20598;-69
2020/12/23 03:49:54;;;;;;;205.97;63.70;;;10.70;93.60;;;;;;4423082;32;20179;-69
2020/12/23 03:52:23;;;;;;;123.67;48.83;;;10.70;93.60;;;;;;4425192;32;20210;-71
2020/12/23 03:54:49;;;;;;;101.43;44.87;;;10.70;93.70;;;;;;4426994;32;20240;-70
2020/12/23 03:57:16;;;;;;;120.37;47.87;;;10.70;93.60;;;;;;4425850;32;20522;-70
2020/12/23 03:59:42;;;;;;;140.60;54.10;;;10.70;93.60;;;;;;4427188;32;20218;-69
2020/12/23 04:02:08;;;;;;;116.70;50.90;;;10.80;93.60;;;;;;4427952;32;20598;-70
2020/12/23 04:04:36;;;;;;;118.60;47.40;;;10.80;93.60;;;;;;4425878;32;20211;-69
2020/12/23 04:07:05;;;;;;;107.47;46.23;;;10.80;93.60;;;;;;4426992;32;20155;-71
2020/12/23 04:09:33;;;;;;;121.00;50.03;;;11.00;93.60;;;;;;4426352;32;20192;-70
2020/12/23 04:12:04;;;;;;;152.87;57.67;;;10.80;93.60;;;;;;4427225;32;20235;-70
2020/12/23 04:14:33;;;;;;;219.90;65.23;;;10.80;93.60;;;;;;4429868;32;20166;-70
2020/12/23 04:17:00;;;;;;;107.07;47.00;;;10.80;93.60;;;;;;4428361;32;20628;-70
2020/12/23 04:19:29;;;;;;;107.73;46.17;;;10.80;93.60;;;;;;4429151;32;20215;-71
2020/12/23 04:21:55;;;;;;;91.83;40.53;;;10.90;93.60;;;;;;4428572;32;20629;-70
2020/12/23 04:24:25;;;;;;;86.00;43.07;;;10.90;93.60;;;;;;4432548;32;20211;-70
2020/12/23 04:26:51;;;;;;;101.77;45.23;;;10.90;93.60;;;;;;4428273;32;20227;-70
2020/12/23 04:29:19;;;;;;;131.40;51.00;;;10.90;93.60;;;;;;4426947;32;20181;-70
2020/12/23 04:31:45;;;;;;;106.80;44.60;;;10.90;93.70;;;;;;4430451;32;20170;-70
2020/12/23 04:34:16;;;;;;;100.20;44.53;;;10.90;93.70;;;;;;4428930;32;20493;-71
2020/12/23 04:36:42;;;;;;;82.00;43.40;;;10.90;93.70;;;;;;4429216;32;20588;-70
2020/12/23 04:39:09;;;;;;;93.87;45.30;;;11.00;93.70;;;;;;4429984;32;20223;-70
2020/12/23 04:41:36;;;;;;;87.07;43.70;;;11.00;93.70;;;;;;4427381;32;20208;-70
2020/12/23 04:44:03;;;;;;;113.80;46.97;;;11.00;93.60;;;;;;4431006;32;20206;-70
2020/12/23 04:46:33;;;;;;;69.40;39.03;;;11.00;93.60;;;;;;4427188;32;20650;-69
2020/12/23 04:49:04;;;;;;;74.70;39.63;;;11.00;93.60;;;;;;4429402;32;20646;-70
2020/12/23 04:51:32;;;;;;;74.37;37.37;;;11.00;93.70;;;;;;4429222;32;20171;-70
2020/12/23 04:54:02;;;;;;;82.93;38.90;;;11.00;93.70;;;;;;4429403;32;20254;-69
2020/12/23 04:56:30;;;;;;;69.10;36.80;;;10.90;93.70;;;;;;4427963;32;20168;-70
2020/12/23 04:59:07;;;;;;;82.40;39.93;;;11.00;93.70;;;;;;4427400;32;20174;-70
2020/12/23 05:01:34;;;;;;;77.90;39.23;;;11.00;93.70;;;;;;4431227;32;20183;-70
2020/12/23 05:04:02;;;;;;;75.77;37.67;;;11.00;93.70;;;;;;4428684;32;20608;-69
2020/12/23 05:06:36;;;;;;;67.23;37.87;;;11.00;93.70;;;;;;4427880;32;20656;-70
2020/12/23 05:09:05;;;;;;;127.47;48.07;;;11.00;93.70;;;;;;4429223;32;20157;-69
2020/12/23 05:11:34;;;;;;;80.63;39.40;;;11.00;93.70;;;;;;4430502;32;20211;-70
2020/12/23 05:14:06;;;;;;;71.10;37.80;;;11.00;93.70;;;;;;4426488;32;20324;-70
2020/12/23 05:16:34;;;;;;;76.90;39.07;;;11.00;93.80;;;;;;4429031;32;20170;-70
2020/12/23 05:19:01;;;;;;;75.53;38.17;;;11.00;93.80;;;;;;4429142;32;20174;-70
2020/12/23 05:21:33;;;;;;;87.23;37.93;;;11.00;93.80;;;;;;4427512;32;20277;-70
2020/12/23 05:24:07;;;;;;;90.70;41.17;;;11.10;93.80;;;;;;4427271;32;20287;-71
2020/12/23 05:26:40;;;;;;;62.70;35.53;;;11.10;93.80;;;;;;4428109;32;20178;-70
2020/12/23 05:29:06;;;;;;;74.30;38.13;;;11.10;93.80;;;;;;4427482;32;20651;-70
2020/12/23 05:31:34;;;;;;;70.40;34.43;;;11.10;93.80;;;;;;4426544;32;20177;-70
2020/12/23 05:34:03;;;;;;;59.67;33.03;;;11.20;93.80;;;;;;4427524;32;20308;-70
2020/12/23 05:36:40;;;;;;;71.10;34.90;;;11.20;93.80;;;;;;4427523;32;20647;-71
2020/12/23 05:39:11;;;;;;;51.13;31.27;;;11.20;93.80;;;;;;4429491;32;20529;-70
2020/12/23 05:41:41;;;;;;;64.63;31.87;;;11.20;93.80;;;;;;4427117;32;20186;-71
2020/12/23 05:44:22;;;;;;;59.20;32.17;;;11.20;93.80;;;;;;4428170;32;20180;-71
2020/12/23 05:46:51;;;;;;;62.87;33.23;;;11.30;93.80;;;;;;4426302;32;20210;-71
2020/12/23 05:49:23;;;;;;;54.07;29.33;;;11.20;93.80;;;;;;4428148;32;20733;-71
2020/12/23 05:51:58;;;;;;;61.13;32.03;;;11.20;93.80;;;;;;4422721;32;20254;-71
2020/12/23 05:54:27;;;;;;;59.87;31.90;;;11.20;93.80;;;;;;4424913;32;20634;-70
2020/12/23 05:56:53;;;;;;;47.00;28.90;;;11.30;93.80;;;;;;4427612;32;20178;-70
2020/12/23 05:59:24;;;;;;;59.47;31.87;;;11.30;93.80;;;;;;4427310;32;20238;-70
2020/12/23 06:02:00;;;;;;;53.10;29.53;;;11.30;93.80;;;;;;4430618;32;20557;-70
2020/12/23 06:04:28;;;;;;;61.27;30.60;;;11.30;93.80;;;;;;4427384;32;20179;-70
2020/12/23 06:06:59;;;;;;;62.60;30.13;;;11.30;93.80;;;;;;4426283;32;20205;-70
2020/12/23 06:09:38;;;;;;;50.77;26.87;;;11.30;93.80;;;;;;4424532;32;20646;-70
2020/12/23 06:12:33;;;;;;;48.67;29.03;;;11.30;93.80;;;;;;4426020;32;20163;-70
2020/12/23 06:15:15;;;;;;;44.70;25.73;;;11.40;93.80;;;;;;4370516;32;20172;-69
2020/12/23 06:17:45;;;;;;;49.47;27.23;;;11.30;93.80;;;;;;4370014;32;20293;-71
2020/12/23 06:20:14;;;;;;;76.53;33.53;;;11.30;93.80;;;;;;4370784;32;20221;-70
2020/12/23 06:22:41;;;;;;;69.50;29.73;;;11.40;93.80;;;;;;4370214;32;20282;-71
2020/12/23 06:25:08;;;;;;;35.03;22.53;;;11.30;93.80;;;;;;4372594;32;20170;-70
2020/12/23 06:27:34;;;;;;;58.07;28.13;;;11.30;93.80;;;;;;4373399;32;20254;-69
2020/12/23 06:30:01;;;;;;;65.80;30.23;;;11.30;93.90;;;;;;4370383;32;20660;-70
2020/12/23 06:32:28;;;;;;;42.43;23.87;;;11.30;93.90;;;;;;4371580;32;20194;-70
2020/12/23 06:35:00;;;;;;;64.23;30.53;;;11.30;93.80;;;;;;4370823;32;20171;-70
2020/12/23 06:37:33;;;;;;;40.37;22.63;;;11.30;93.80;;;;;;4371508;32;20193;-71
2020/12/23 06:40:11;;;;;;;51.93;26.00;;;11.30;93.80;;;;;;4373161;32;20748;-71
2020/12/23 06:42:46;;;;;;;48.73;25.13;;;11.30;93.90;;;;;;4369699;32;20210;-71
2020/12/23 06:45:15;;;;;;;36.13;22.50;;;11.30;94.00;;;;;;4370956;32;20276;-71
2020/12/23 06:47:43;;;;;;;37.80;22.57;;;11.30;94.00;;;;;;4369807;32;20184;-70
2020/12/23 06:50:32;;;;;;;32.73;22.20;;;11.40;94.00;;;;;;4370690;32;20220;-71
2020/12/23 06:53:03;;;;;;;59.27;28.67;;;11.30;94.00;;;;;;4428604;32;20159;-71
2020/12/23 06:55:48;;;;;;;31.97;20.10;;;11.40;93.90;;;;;;4427999;32;20239;-71
2020/12/23 06:58:37;;;;;;;29.53;19.50;;;11.40;93.90;;;;;;4426662;32;20170;-69
2020/12/23 07:01:20;;;;;;;37.40;22.40;;;11.40;93.90;;;;;;4426194;32;20222;-71
2020/12/23 07:03:51;;;;;;;31.97;20.70;;;11.40;93.90;;;;;;4424695;32;20161;-69
2020/12/23 07:06:34;;;;;;;39.10;23.13;;;11.40;93.90;;;;;;4425004;32;21261;-71
2020/12/23 07:09:05;;;;;;;57.07;27.80;;;11.40;94.00;;;;;;4424464;32;20186;-69
2020/12/23 07:11:35;;;;;;;39.60;22.93;;;11.40;94.00;;;;;;4423726;32;20247;-68
2020/12/23 07:14:06;;;;;;;33.27;22.13;;;11.40;94.10;;;;;;4424719;32;20491;-69
2020/12/23 07:17:02;;;;;;;35.83;23.67;;;11.50;94.10;;;;;;4425741;32;20230;-71
2020/12/23 07:19:35;;;;;;;43.20;25.23;;;11.50;94.10;;;;;;4425834;32;20235;-68
2020/12/23 07:22:06;;;;;;;46.67;25.67;;;11.50;94.00;;;;;;4430583;32;20165;-69
2020/12/23 07:24:35;;;;;;;38.80;23.50;;;11.50;94.10;;;;;;4427402;32;20179;-69
2020/12/23 07:27:03;;;;;;;42.17;24.50;;;11.60;94.00;;;;;;4425762;32;20230;-69
2020/12/23 07:29:41;;;;;;;64.43;30.33;;;11.60;94.00;;;;;;4425947;32;20156;-69
2020/12/23 07:32:12;;;;;;;60.60;29.63;;;11.60;94.00;;;;;;4426351;32;20200;-69
2020/12/23 07:34:51;;;;;;;38.13;22.40;;;11.60;94.00;;;;;;4424516;32;20220;-69
2020/12/23 07:37:28;;;;;;;55.97;27.83;;;11.60;94.10;;;;;;4424681;32;20624;-69
2020/12/23 07:40:05;;;;;;;38.37;23.73;;;11.60;94.10;;;;;;4423097;32;20226;-67
2020/12/23 07:42:32;;;;;;;39.10;24.83;;;11.60;94.10;;;;;;4422769;32;20175;-69
2020/12/23 07:45:02;;;;;;;51.07;26.90;;;11.60;94.20;;;;;;4423965;32;20159;-68
2020/12/23 07:47:30;;;;;;;40.40;23.70;;;11.50;94.10;;;;;;4425047;32;20226;-67
2020/12/23 07:50:21;;;;;;;44.43;25.30;;;11.60;94.20;;;;;;4427333;32;20219;-68
2020/12/23 07:52:54;;;;;;;53.77;26.83;;;11.60;94.20;;;;;;4367079;32;20215;-69
2020/12/23 07:55:27;;;;;;;48.80;25.27;;;11.60;94.20;;;;;;4365525;32;20621;-68
2020/12/23 07:58:00;;;;;;;47.23;25.50;;;11.60;94.30;;;;;;4364264;32;20206;-69
2020/12/23 08:00:35;;;;;;;36.43;22.97;;;11.60;94.30;;;;;;4367325;32;20584;-68
2020/12/23 08:03:16;;;;;;;48.20;24.87;;;11.70;94.40;;;;;;4365718;32;20183;-69
2020/12/23 08:06:07;;;;;;;54.50;27.33;;;11.70;94.30;;;;;;4369619;32;20188;-69
2020/12/23 08:08:37;;;;;;;45.93;25.83;;;11.70;94.30;;;;;;4364637;32;20196;-69
2020/12/23 08:11:19;;;;;;;36.20;22.87;;;11.70;94.40;;;;;;4366063;32;20220;-69
2020/12/23 08:13:45;;;;;;;56.93;29.90;;;11.70;94.50;;;;;;4364896;32;20188;-69
2020/12/23 08:16:13;;;;;;;32.20;21.27;;;11.70;94.60;;;;;;4366872;32;20165;-70
2020/12/23 08:18:44;;;;;;;40.23;24.23;;;11.70;94.60;;;;;;4371738;32;20247;-69
2020/12/23 08:21:17;;;;;;;33.30;21.97;;;11.70;94.50;;;;;;4366756;32;20273;-71
2020/12/23 08:23:50;;;;;;;41.23;23.97;;;11.70;94.50;;;;;;4370495;32;20184;-69
2020/12/23 08:26:21;;;;;;;25.50;19.13;;;11.70;94.50;;;;;;4365758;32;20497;-70
2020/12/23 08:28:51;;;;;;;35.90;21.50;;;11.80;94.60;;;;;;4375855;32;20258;-69
2020/12/23 08:31:27;;;;;;;32.17;19.63;;;11.80;94.50;;;;;;4428870;32;20655;-70
2020/12/23 08:33:59;;;;;;;24.80;17.57;;;11.80;94.60;;;;;;4431296;32;20250;-69
2020/12/23 08:36:33;;;;;;;27.97;18.37;;;11.80;94.60;;;;;;4433001;32;20154;-69
2020/12/23 08:39:00;;;;;;;35.33;19.63;;;11.80;94.50;;;;;;4428761;32;20150;-69
2020/12/23 08:41:36;;;;;;;27.27;18.63;;;11.80;94.60;;;;;;4428272;32;20196;-68
2020/12/23 08:44:06;;;;;;;23.37;17.30;;;11.80;94.60;;;;;;4434686;32;20151;-70
2020/12/23 08:46:38;;;;;;;31.00;19.10;;;11.80;94.50;;;;;;4429582;32;20630;-69
2020/12/23 08:49:14;;;;;;;44.30;22.87;;;11.80;94.50;;;;;;4430820;32;20167;-69
2020/12/23 08:51:40;;;;;;;29.73;19.67;;;11.80;94.60;;;;;;4429613;32;20246;-71
2020/12/23 08:54:14;;;;;;;45.93;25.50;;;11.80;94.50;;;;;;4431846;32;20651;-69
2020/12/23 08:56:47;;;;;;;31.03;22.43;;;11.90;94.50;;;;;;4432400;32;20861;-69
2020/12/23 08:59:15;;;;;;;28.67;22.57;;;11.80;94.40;;;;;;4428198;32;20162;-68
2020/12/23 09:01:43;;;;;;;46.37;28.10;;;11.80;94.50;;;;;;4427171;32;20163;-70
2020/12/23 09:04:12;;;;;;;29.80;22.70;;;11.80;94.50;;;;;;4425900;32;20166;-70
2020/12/23 09:06:42;;;;;;;33.60;25.70;;;11.80;94.50;;;;;;4428729;32;20226;-68
2020/12/23 09:09:17;;;;;;;43.10;28.13;;;11.80;94.50;;;;;;4428884;32;20180;-68
2020/12/23 09:11:57;;;;;;;36.67;23.43;;;11.80;94.50;;;;;;4427391;32;20481;-68
2020/12/23 09:14:27;;;;;;;34.10;24.23;;;11.90;94.50;;;;;;4431080;32;20220;-68
2020/12/23 09:16:58;;;;;;;25.73;20.50;;;11.90;94.30;;;;;;4429616;32;20536;-69
2020/12/23 09:19:44;;;;;;;29.53;22.67;;;11.90;94.30;;;;;;4429091;32;20154;-68
2020/12/23 09:22:12;;;;;;;40.50;25.77;;;12.00;94.30;;;;;;4429100;32;20217;-69
2020/12/23 09:24:40;;;;;;;29.67;20.50;;;12.00;94.30;;;;;;4428149;32;20189;-69
2020/12/23 09:27:24;;;;;;;25.87;19.90;;;12.00;94.30;;;;;;4433195;32;20156;-69
2020/12/23 09:29:56;;;;;;;27.80;20.97;;;11.90;94.20;;;;;;4429043;32;20194;-69
2020/12/23 09:32:22;;;;;;;34.90;24.03;;;11.90;94.20;;;;;;4428556;32;20636;-68
2020/12/23 09:34:49;;;;;;;30.73;21.50;;;11.90;94.20;;;;;;4429143;32;20236;-68
2020/12/23 09:37:20;;;;;;;28.73;20.00;;;11.80;94.50;;;;;;4429641;32;20607;-68
2020/12/23 09:39:46;;;;;;;34.70;21.83;;;11.90;94.30;;;;;;4425840;32;20187;-70
2020/12/23 09:42:12;;;;;;;27.13;19.40;;;12.00;94.30;;;;;;4426810;32;20178;-70
2020/12/23 09:44:46;;;;;;;23.73;18.30;;;12.00;94.20;;;;;;4424768;32;20606;-71
2020/12/23 09:47:12;;;;;;;27.97;20.13;;;12.00;94.30;;;;;;4430585;32;20155;-70
2020/12/23 09:49:39;;;;;;;27.57;19.97;;;12.00;94.40;;;;;;4427810;32;20178;-70
2020/12/23 09:52:05;;;;;;;24.93;19.13;;;12.10;94.10;;;;;;4421432;32;20208;-70
2020/12/23 09:54:31;;;;;;;26.37;18.33;;;12.10;94.00;;;;;;4432988;32;20240;-70
2020/12/23 09:57:00;;;;;;;25.13;18.53;;;12.10;94.00;;;;;;4431556;32;20286;-71
2020/12/23 09:59:31;;;;;;;26.30;19.60;;;12.20;94.00;;;;;;4430101;32;20210;-71
2020/12/23 10:02:01;;;;;;;28.37;18.43;;;12.10;93.80;;;;;;4428380;32;20212;-72
2020/12/23 10:04:29;;;;;;;21.97;16.30;;;12.20;93.70;;;;;;4429111;32;20179;-69
2020/12/23 10:07:04;;;;;;;21.47;15.67;;;12.20;93.70;;;;;;4429364;32;20214;-69
2020/12/23 10:09:36;;;;;;;21.70;15.47;;;12.20;93.70;;;;;;4428720;32;20186;-70
2020/12/23 10:12:05;;;;;;;20.33;16.10;;;12.20;93.50;;;;;;4425448;32;20161;-69
2020/12/23 10:14:31;;;;;;;24.27;16.20;;;12.20;93.60;;;;;;4431068;32;20221;-69
2020/12/23 10:17:03;;;;;;;20.00;16.30;;;12.10;93.50;;;;;;4427080;32;20250;-70
2020/12/23 10:19:29;;;;;;;18.23;15.30;;;12.20;93.60;;;;;;4425807;32;20219;-69
2020/12/23 10:22:03;;;;;;;20.67;16.20;;;12.10;93.60;;;;;;4426829;32;20208;-69
2020/12/23 10:24:38;;;;;;;20.27;15.37;;;12.10;93.70;;;;;;4428567;32;20235;-70
2020/12/23 10:27:08;;;;;;;17.83;13.53;;;12.10;93.60;;;;;;4426662;32;20211;-70
2020/12/23 10:29:34;;;;;;;22.83;16.33;;;12.00;93.70;;;;;;4430223;32;20222;-70
2020/12/23 10:32:14;;;;;;;20.97;16.07;;;12.00;93.70;;;;;;4424638;32;20250;-70
2020/12/23 10:34:50;;;;;;;17.00;13.47;;;12.00;93.70;;;;;;4426994;32;20194;-70
2020/12/23 10:37:20;;;;;;;20.77;15.87;;;12.00;93.60;;;;;;4429810;32;20155;-70
2020/12/23 10:39:48;;;;;;;18.53;14.63;;;12.00;93.70;;;;;;4422155;32;20232;-70
2020/12/23 10:42:18;;;;;;;21.20;13.97;;;11.90;93.80;;;;;;4425784;32;20159;-70
2020/12/23 10:44:48;;;;;;;17.73;13.33;;;11.90;93.80;;;;;;4423345;32;20219;-69
2020/12/23 10:47:17;;;;;;;20.37;14.60;;;11.90;93.80;;;;;;4424792;32;20167;-69
2020/12/23 10:49:48;;;;;;;23.20;15.47;;;11.90;93.90;;;;;;4426592;32;20158;-70
2020/12/23 10:52:20;;;;;;;18.07;13.27;;;11.90;93.80;;;;;;4423237;32;20757;-69
2020/12/23 10:54:48;;;;;;;21.07;13.67;;;11.90;93.90;;;;;;4425898;32;20167;-69
2020/12/23 10:57:25;;;;;;;17.30;11.00;;;11.90;93.80;;;;;;4428951;32;20282;-69
2020/12/23 10:59:51;;;;;;;11.90;10.03;;;11.90;93.90;;;;;;4425853;32;20179;-69
2020/12/23 11:02:20;;;;;;;12.80;9.63;;;11.90;93.90;;;;;;4429687;32;20215;-69
2020/12/23 11:04:53;;;;;;;12.33;8.97;;;11.80;93.90;;;;;;4426833;32;20166;-69
2020/12/23 11:07:22;;;;;;;15.30;9.30;;;11.90;94.00;;;;;;4427792;32;20210;-69
2020/12/23 11:09:53;;;;;;;9.43;7.90;;;11.80;93.90;;;;;;4430081;32;20158;-69
2020/12/23 11:12:22;;;;;;;11.13;8.57;;;11.80;94.00;;;;;;4422880;32;20211;-69
2020/12/23 11:14:52;;;;;;;9.03;7.93;;;11.90;94.00;;;;;;4430310;32;20214;-69
2020/12/23 11:17:36;;;;;;;;;;;;;;;;;;;;;
2020/12/23 11:20:07;;;;;;;8.90;6.83;;;11.90;93.90;;;;;;4430482;32;20147;-70
2020/12/23 11:22:36;;;;;;;8.03;6.67;;;11.90;94.00;;;;;;4426567;32;20290;-69
2020/12/23 11:25:06;;;;;;;6.80;6.10;;;11.90;94.10;;;;;;4430216;32;20200;-70
2020/12/23 11:27:35;;;;;;;11.63;8.43;;;11.90;94.00;;;;;;4428188;32;20167;-69
2020/12/23 11:30:04;;;;;;;9.70;6.10;;;11.90;94.00;;;;;;4428093;32;20236;-69
2020/12/23 11:32:31;;;;;;;8.67;6.23;;;11.90;94.00;;;;;;4425792;32;20203;-69
2020/12/23 11:35:03;;;;;;;10.27;7.50;;;11.90;94.00;;;;;;4425781;32;20646;-69
2020/12/23 11:37:31;;;;;;;7.10;6.40;;;11.90;94.10;;;;;;4420341;32;20212;-69
2020/12/23 11:40:00;;;;;;;13.73;8.23;;;11.90;94.00;;;;;;4425769;32;20192;-69
2020/12/23 11:42:28;;;;;;;8.10;7.23;;;11.90;94.00;;;;;;4431450;32;20177;-68
2020/12/23 11:44:56;;;;;;;9.00;7.10;;;11.90;94.00;;;;;;4430626;32;20170;-68
2020/12/23 11:47:23;;;;;;;7.83;6.00;;;11.90;94.20;;;;;;4431486;32;20269;-69
2020/12/23 11:49:54;;;;;;;7.43;6.27;;;11.90;93.90;;;;;;4422210;32;20176;-69
2020/12/23 11:52:22;;;;;;;7.17;5.80;;;11.90;93.90;;;;;;4432189;32;20635;-69
2020/12/23 11:55:18;;;;;;;9.87;7.73;;;11.90;94.00;;;;;;4423953;32;20647;-69
2020/12/23 11:57:47;;;;;;;9.67;7.27;;;11.90;93.90;;;;;;4385881;32;20205;-69
2020/12/23 12:00:18;;;;;;;13.40;8.50;;;12.00;94.00;;;;;;4381799;32;20294;-69
2020/12/23 12:02:50;;;;;;;10.27;7.40;;;11.90;94.00;;;;;;4385341;32;20556;-69
2020/12/23 12:05:21;;;;;;;7.80;6.40;;;11.90;93.90;;;;;;4381985;32;20191;-69
2020/12/23 12:07:49;;;;;;;8.50;6.87;;;11.90;93.90;;;;;;4387578;32;20160;-69
2020/12/23 12:10:33;;;;;;;9.57;7.73;;;12.00;93.90;;;;;;4379814;32;20251;-69
2020/12/23 12:13:02;;;;;;;7.43;5.80;;;12.00;93.80;;;;;;4373239;32;20218;-69
2020/12/23 12:15:34;;;;;;;6.97;5.13;;;11.90;93.80;;;;;;4378791;32;20291;-70
2020/12/23 12:18:08;;;;;;;6.07;4.97;;;11.90;93.70;;;;;;4382461;32;20202;-69
2020/12/23 12:20:38;;;;;;;7.40;6.23;;;11.90;93.70;;;;;;4385059;32;20178;-69
2020/12/23 12:23:06;;;;;;;8.57;7.57;;;11.90;93.70;;;;;;4381501;32;20218;-69
2020/12/23 12:25:36;;;;;;;11.27;8.37;;;11.90;93.90;;;;;;4384205;32;20517;-71
2020/12/23 12:28:02;;;;;;;10.50;8.97;;;11.80;94.00;;;;;;4383241;32;20239;-68
2020/12/23 12:30:35;;;;;;;10.60;9.07;;;11.90;94.00;;;;;;4376177;32;20414;-69
2020/12/23 12:33:01;;;;;;;13.27;10.10;;;11.80;94.10;;;;;;4372108;32;20493;-68
2020/12/23 12:35:30;;;;;;;10.07;9.07;;;11.80;94.10;;;;;;4417767;32;20210;-69
2020/12/23 12:38:00;;;;;;;13.63;11.37;;;11.90;94.20;;;;;;4435378;32;20163;-69
2020/12/23 12:40:30;;;;;;;12.47;11.23;;;11.90;94.20;;;;;;4427208;32;20239;-68
2020/12/23 12:43:02;;;;;;;15.23;13.07;;;11.90;94.40;;;;;;4435771;32;20218;-69
2020/12/23 12:45:29;;;;;;;15.03;12.50;;;11.90;94.40;;;;;;4432024;32;20174;-70